• Join FlightAware (Why Join?)
  • Login
  • US Flag 
12:34PM EDT


 

Airport Tracker/Info


-or-


 

Live Flight TrackerFlight Track Log ✈ TAM3133 ✈ 20-May-2013 ✈ SBVT / VIX - SBSP / CGH

Flight Track Log - Related Links

Times and Time Zones

All times are in EDT time to prevent confusion due to time zone crossing. See the TAM3133 flight status page for this flight to view local times or setup timezone preferences in your user account.

Time Position Orientation Groundspeed Altitude Reporting Facility
EDT Latitude Longitude Course Direction KTS MPH feet Rate Location/Type
02:48PM -22.1122 -43.6967 239° Southwest  Level Estimated
02:49PM -22.1589 -43.7852 240° Southwest  Level Estimated
02:50PM -22.2055 -43.8739 240° Southwest  Level Estimated
02:51PM -22.2520 -43.9626 240° Southwest  Level Estimated
02:52PM -22.2985 -44.0513 240° Southwest  Level Estimated
02:53PM -22.3449 -44.1402 241° Southwest  Level Estimated
02:54PM -22.3913 -44.2290 241° Southwest  Level Estimated
02:55PM -22.4376 -44.3180 241° Southwest  Level Estimated
02:56PM -22.4839 -44.4070 241° Southwest  Level Estimated
02:57PM -22.5301 -44.4960 241° Southwest  Level Estimated
02:58PM -22.5763 -44.5852 241° Southwest  Level Estimated
02:59PM -22.6225 -44.6743 241° Southwest  Level Estimated
03:00PM -22.6686 -44.7636 241° Southwest  Level Estimated
03:01PM -22.7146 -44.8529 241° Southwest  Level Estimated
03:02PM -22.7606 -44.9422 241° Southwest  Level Estimated
03:03PM -22.8065 -45.0317 241° Southwest  Level Estimated
03:04PM -22.8524 -45.1211 241° Southwest  Level Estimated
03:05PM -22.8983 -45.2107 241° Southwest  Level Estimated
03:06PM -22.9440 -45.3003 241° Southwest  Level Estimated
03:07PM -22.9898 -45.3899 241° Southwest  Level Estimated
03:08PM -23.0355 -45.4797 241° Southwest  Level Estimated
03:09PM -23.0811 -45.5694 241° Southwest  Level Estimated
03:10PM -23.1267 -45.6593 241° Southwest  Level Estimated
03:11PM -23.1723 -45.7492 241° Southwest  Level Estimated
03:12PM -23.2177 -45.8391 241° Southwest  Level Estimated
03:13PM -23.2632 -45.9292 241° Southwest  Level Estimated
03:14PM -23.3086 -46.0192 241° Southwest  Level Estimated
03:15PM -23.3539 -46.1094 241° Southwest  Level Estimated
03:16PM -23.3992 -46.1996 241° Southwest  Level Estimated
03:17PM -23.4444 -46.2899 241° Southwest  Level Estimated
03:18PM -23.4896 -46.3802 241° Southwest  Level Estimated
03:19PM -23.5347 -46.4706 241° Southwest  Level Estimated
03:20PM -23.5798 -46.5611 241° Southwest  Level Estimated
03:21PM -23.6248 -46.6516 241° Southwest  Level Estimated
03:22PM -23.6267 -46.6554 241° Southwest  Level Estimated
03:23PM -23.6267 -46.6554 114° Southeast  Level Estimated
03:24PM -23.6267 -46.6554 114° Southeast  Level Estimated
03:25PM -23.6267 -46.6554 114° Southeast  Level Estimated
03:26PM -23.6267 -46.6554 114° Southeast  Level Estimated
03:27PM -23.6267 -46.6554 114° Southeast  Level Estimated
03:28PM -23.6267 -46.6554 114° Southeast  Level Estimated
03:29PM -23.6267 -46.6554 114° Southeast  Level Estimated
03:30PM -23.6267 -46.6554 114° Southeast  Level Estimated
03:31PM -23.6267 -46.6554 114° Southeast  Level Estimated
03:32PM -23.6267 -46.6554 114° Southeast  Level Estimated
03:33PM -23.6267 -46.6554 114° Southeast  Level Estimated
03:34PM -23.6267 -46.6554 114° Southeast  Level Estimated
03:35PM -23.6267 -46.6554 114° Southeast  Level Estimated
03:36PM -23.6267 -46.6554 114° Southeast  Level Estimated
03:37PM -23.6267 -46.6554 114° Southeast  Level Estimated